createdAt,value
2024-02-19T00:05:34.857Z,97
2024-02-19T00:22:07.360Z,98
2024-02-19T00:38:38.742Z,99
2024-02-19T00:55:11.821Z,98
2024-02-19T01:11:43.896Z,98
2024-02-19T01:28:15.888Z,97
2024-02-19T01:44:42.918Z,99
2024-02-19T02:01:15.563Z,99
2024-02-19T02:17:46.669Z,98
2024-02-19T02:34:18.675Z,97
2024-02-19T02:50:50.547Z,98
2024-02-19T03:07:22.747Z,98
2024-02-19T03:23:53.823Z,99
2024-02-19T03:40:26.227Z,99
2024-02-19T04:30:00.936Z,99
2024-02-19T04:46:32.574Z,101
2024-02-19T05:03:04.518Z,101
2024-02-19T05:36:03.099Z,101
2024-02-19T05:52:35.434Z,102
2024-02-19T06:09:06.387Z,102
2024-02-19T06:25:37.567Z,104
2024-02-19T06:42:09.319Z,104
2024-02-19T06:58:41.754Z,103
2024-02-19T07:15:12.945Z,105
2024-02-19T07:31:44.327Z,101
2024-02-19T07:48:16.123Z,104
2024-02-19T08:04:47.796Z,105
2024-02-19T08:21:19.930Z,106
2024-02-19T08:37:50.733Z,105
2024-02-19T08:54:17.661Z,105
2024-02-19T09:10:50.471Z,108
2024-02-19T09:27:22.885Z,108
2024-02-19T09:43:54.643Z,108
2024-02-19T10:00:26.398Z,109
2024-02-19T10:16:57.846Z,110
2024-02-19T10:33:30.568Z,109
2024-02-19T10:50:03.013Z,112
2024-02-19T11:06:35.499Z,112
2024-02-19T11:23:08.261Z,111
2024-02-19T11:39:41.318Z,114
2024-02-19T11:56:13.622Z,113
2024-02-19T12:12:47.438Z,113
2024-02-19T12:29:15.387Z,112
2024-02-19T12:45:47.814Z,113
2024-02-19T13:02:21.352Z,114
2024-02-19T13:18:54.029Z,112
2024-02-19T13:51:58.300Z,115
2024-02-19T14:08:30.884Z,114
2024-02-19T14:25:03.188Z,115
2024-02-19T14:41:35.257Z,115
2024-02-19T14:58:07.649Z,115
2024-02-19T15:31:14.006Z,115
2024-02-19T15:47:44.873Z,118
2024-02-19T16:04:12.419Z,115
2024-02-19T16:20:44.734Z,115
2024-02-19T16:37:17.377Z,115
2024-02-19T16:53:48.929Z,114
2024-02-19T17:10:21.166Z,114
2024-02-19T17:26:53.350Z,113
2024-02-19T17:43:25.642Z,116
2024-02-19T17:59:57.486Z,115
2024-02-19T18:16:29.968Z,117
2024-02-19T18:49:33.823Z,116
2024-02-19T19:22:37.625Z,117
2024-02-19T19:39:06.609Z,118
2024-02-19T19:55:37.223Z,117
2024-02-19T20:12:08.082Z,117
2024-02-19T20:28:39.886Z,116
2024-02-19T20:45:11.508Z,118
2024-02-19T21:01:43.566Z,117
2024-02-19T21:18:16.674Z,118
2024-02-19T21:51:18.301Z,120
2024-02-19T22:07:49.403Z,118
2024-02-19T22:24:20.366Z,121
2024-02-19T22:40:52.573Z,119
2024-02-19T22:57:24.578Z,119
2024-02-19T23:13:51.405Z,119
2024-02-19T23:30:23.630Z,119
2024-02-19T23:46:55.878Z,119
